Time;durP1;ratioP1;P1;durP2;ratioP2;P2;SDS_P1;SDS_P2;PMS_P1;PMS_P2;Temp;Humidity;BMP_temperature;BMP_pressure;BME280_temperature;BME280_humidity;BME280_pressure;Samples;Min_cycle;Max_cycle;Signal;HPM_P1;HPM_P2
2023/10/29 00:00:11;;;;;;;24.63;16.00;;;358.60;2329.60;;;;;;5072974;28;20025;-76
2023/10/29 00:02:37;;;;;;;26.45;16.98;;;358.70;2329.60;;;;;;5071732;28;20070;-76
2023/10/29 00:05:03;;;;;;;27.55;18.67;;;358.60;2329.60;;;;;;5073181;28;20470;-76
2023/10/29 00:07:29;;;;;;;26.98;17.42;;;358.60;2048.00;;;;;;5073160;28;20474;-76
2023/10/29 00:09:55;;;;;;;31.00;17.00;;;358.60;2329.60;;;;;;5073212;28;20024;-76
2023/10/29 00:12:21;;;;;;;25.50;15.15;;;358.60;2329.60;;;;;;5084817;28;20056;-76
2023/10/29 00:14:47;;;;;;;28.08;17.05;;;358.50;2124.80;;;;;;5087957;28;20051;-76
2023/10/29 00:17:13;;;;;;;25.38;16.85;;;358.50;2329.60;;;;;;5086529;28;20395;-76
2023/10/29 00:19:39;;;;;;;23.63;16.45;;;358.40;2329.60;;;;;;5092532;28;20016;-76
2023/10/29 00:22:05;;;;;;;27.77;16.77;;;358.40;2329.60;;;;;;5093046;28;20115;-76
2023/10/29 00:24:31;;;;;;;22.23;15.80;;;333.60;2329.60;;;;;;5092546;28;20036;-76
2023/10/29 00:26:57;;;;;;;28.73;16.45;;;333.60;2329.60;;;;;;5092498;28;20044;-76
2023/10/29 00:29:22;;;;;;;25.42;17.33;;;333.70;2329.60;;;;;;5083194;28;20028;-75
2023/10/29 00:31:48;;;;;;;24.38;16.70;;;333.70;2329.60;;;;;;5088336;28;20021;-76
2023/10/29 00:34:14;;;;;;;39.58;18.45;;;358.40;2329.60;;;;;;5087100;28;20025;-76
2023/10/29 00:36:40;;;;;;;27.13;16.70;;;358.50;2329.60;;;;;;5093080;28;20410;-75
2023/10/29 00:39:07;;;;;;;27.83;16.85;;;358.60;2329.60;;;;;;5087227;28;20035;-76
2023/10/29 00:41:33;;;;;;;25.35;15.32;;;358.60;2329.60;;;;;;5081876;28;20032;-76
2023/10/29 00:43:58;;;;;;;24.33;15.30;;;358.60;2329.60;;;;;;5083127;28;20035;-76
2023/10/29 00:46:25;;;;;;;25.65;14.15;;;358.60;2329.60;;;;;;5091716;28;20061;-76
2023/10/29 00:48:51;;;;;;;24.63;14.27;;;358.60;2329.60;;;;;;5092227;28;20024;-77
2023/10/29 00:51:18;;;;;;;25.25;14.23;;;358.50;2329.60;;;;;;5092323;28;20603;-75
2023/10/29 00:53:44;;;;;;;19.17;13.50;;;358.50;2329.60;;;;;;5092470;28;20055;-75
2023/10/29 00:56:12;;;;;;;24.85;14.32;;;358.50;2329.60;;;;;;5092755;28;20093;-75
2023/10/29 00:58:39;;;;;;;20.23;14.18;;;358.50;2329.60;;;;;;5092343;28;20046;-76
2023/10/29 01:01:05;;;;;;;19.75;13.98;;;358.70;2329.60;;;;;;5090892;28;20527;-76
2023/10/29 01:03:30;;;;;;;28.27;14.30;;;358.70;2227.20;;;;;;5102774;28;20103;-77
2023/10/29 01:05:57;;;;;;;22.85;14.35;;;358.80;2329.60;;;;;;5103227;28;20180;-77
2023/10/29 01:08:25;;;;;;;22.27;13.38;;;358.80;2329.60;;;;;;5093748;28;20143;-76
2023/10/29 01:10:51;;;;;;;26.23;13.48;;;358.70;2329.60;;;;;;5096084;28;20051;-76
2023/10/29 01:13:17;;;;;;;25.63;13.90;;;358.60;2201.60;;;;;;5095931;28;20106;-76
2023/10/29 01:15:43;;;;;;;22.55;13.13;;;358.70;2329.60;;;;;;5095452;28;20088;-76
2023/10/29 01:18:09;;;;;;;22.58;12.73;;;358.70;2176.00;;;;;;5094243;28;20008;-76
2023/10/29 01:20:35;;;;;;;25.60;14.43;;;358.70;2073.60;;;;;;5095687;28;20366;-75
2023/10/29 01:23:01;;;;;;;23.48;13.40;;;358.60;2329.60;;;;;;5090907;28;20024;-76
2023/10/29 01:25:27;;;;;;;23.17;13.95;;;358.60;2099.20;;;;;;5095559;28;20067;-75
2023/10/29 01:27:54;;;;;;;20.95;12.30;;;358.60;1945.60;;;;;;5092447;28;20032;-75
2023/10/29 01:30:20;;;;;;;20.85;13.20;;;358.60;2329.60;;;;;;5088222;28;20077;-76
2023/10/29 01:32:45;;;;;;;22.05;12.95;;;358.50;2329.60;;;;;;5095985;28;20447;-76
2023/10/29 01:35:11;;;;;;;28.33;15.15;;;358.40;2329.60;;;;;;5094388;28;20035;-75
2023/10/29 01:37:37;;;;;;;19.25;13.30;;;358.40;2278.40;;;;;;5095458;28;20024;-76
2023/10/29 01:40:03;;;;;;;19.55;12.43;;;358.40;2124.80;;;;;;5096021;28;20074;-76
2023/10/29 01:42:29;;;;;;;25.67;13.90;;;358.40;2099.20;;;;;;5095088;28;20386;-75
2023/10/29 01:44:55;;;;;;;23.58;12.80;;;358.40;2329.60;;;;;;5090729;28;20436;-76
2023/10/29 01:47:21;;;;;;;15.18;11.35;;;333.60;2329.60;;;;;;5087408;28;20046;-75
2023/10/29 01:49:47;;;;;;;20.95;13.00;;;333.60;2329.60;;;;;;5087699;28;20367;-76
2023/10/29 01:52:12;;;;;;;15.60;11.35;;;333.60;2329.60;;;;;;5088398;28;20048;-76
2023/10/29 01:54:38;;;;;;;17.23;9.88;;;333.60;2329.60;;;;;;5095661;28;20383;-75
2023/10/29 01:57:04;;;;;;;18.90;11.48;;;333.50;2329.60;;;;;;5094285;28;20016;-76
2023/10/29 01:59:30;;;;;;;19.08;11.30;;;333.50;2329.60;;;;;;5095547;28;20020;-76
2023/10/29 02:01:56;;;;;;;18.05;11.90;;;333.40;2329.60;;;;;;5094001;28;20024;-75
2023/10/29 02:04:27;;;;;;;21.05;12.38;;;333.20;2329.60;;;;;;5095725;28;20024;-76
2023/10/29 02:06:56;;;;;;;20.95;11.20;;;333.00;2329.60;;;;;;5094401;28;20178;-76
2023/10/29 02:09:22;;;;;;;16.35;10.70;;;332.90;2329.60;;;;;;5095507;28;20461;-76
2023/10/29 02:11:48;;;;;;;19.67;10.23;;;332.90;2329.60;;;;;;5095576;28;20432;-76
2023/10/29 02:14:13;;;;;;;19.92;11.77;;;308.10;2304.00;;;;;;5095346;28;20024;-76
2023/10/29 02:16:39;;;;;;;20.98;11.32;;;308.00;2304.00;;;;;;5095362;28;20382;-76
2023/10/29 02:19:05;;;;;;;22.70;11.15;;;307.90;2304.00;;;;;;5095225;28;20051;-76
2023/10/29 02:21:31;;;;;;;18.67;12.27;;;308.00;2304.00;;;;;;5095076;28;20389;-76
2023/10/29 02:24:00;;;;;;;18.77;12.13;;;307.90;2304.00;;;;;;5095372;28;20114;-75
2023/10/29 02:26:27;;;;;;;19.77;11.68;;;307.80;2304.00;;;;;;5095218;28;20032;-76
2023/10/29 02:28:53;;;;;;;18.00;12.60;;;307.80;2304.00;;;;;;5095458;28;20534;-75
2023/10/29 02:31:19;;;;;;;25.90;12.68;;;307.90;2304.00;;;;;;5095119;28;20031;-76
2023/10/29 02:33:46;;;;;;;23.85;14.25;;;308.10;2201.60;;;;;;5094034;28;20025;-76
2023/10/29 02:36:12;;;;;;;23.55;13.25;;;332.80;2124.80;;;;;;5094961;28;20043;-76
2023/10/29 02:38:38;;;;;;;24.50;15.07;;;307.80;2304.00;;;;;;5095083;28;20017;-76
2023/10/29 02:41:05;;;;;;;27.20;15.80;;;332.80;2329.60;;;;;;5094941;28;20044;-75
2023/10/29 02:43:30;;;;;;;25.17;15.45;;;332.90;2329.60;;;;;;5094801;28;20099;-76
2023/10/29 02:45:56;;;;;;;26.33;14.65;;;332.80;2329.60;;;;;;5094724;28;20589;-76
2023/10/29 02:48:22;;;;;;;22.60;14.82;;;332.80;2329.60;;;;;;5094811;28;20031;-75
2023/10/29 02:50:48;;;;;;;24.52;14.88;;;332.90;2329.60;;;;;;5094541;28;20466;-76
2023/10/29 02:53:13;;;;;;;30.63;16.63;;;332.90;2329.60;;;;;;5094999;28;20495;-75
2023/10/29 02:55:39;;;;;;;29.88;15.25;;;333.10;2329.60;;;;;;5094603;28;20102;-75
2023/10/29 02:58:08;;;;;;;29.02;14.95;;;333.00;2329.60;;;;;;5094690;28;20493;-75
2023/10/29 03:00:33;;;;;;;26.40;15.80;;;333.20;2329.60;;;;;;5094367;28;20054;-76
2023/10/29 03:02:59;;;;;;;25.83;14.60;;;333.20;2329.60;;;;;;5094581;28;20531;-76
2023/10/29 03:05:25;;;;;;;32.08;15.48;;;333.30;2329.60;;;;;;5094249;28;20031;-75
2023/10/29 03:07:50;;;;;;;30.75;15.57;;;333.10;2329.60;;;;;;5094448;28;20527;-76
2023/10/29 03:10:16;;;;;;;32.17;15.30;;;333.00;2329.60;;;;;;5094512;28;20188;-76
2023/10/29 03:12:42;;;;;;;39.95;16.90;;;332.90;2329.60;;;;;;5094302;28;20028;-75
2023/10/29 03:15:08;;;;;;;29.80;16.83;;;332.90;2329.60;;;;;;5094263;28;20066;-75
2023/10/29 03:17:34;;;;;;;28.85;15.55;;;332.90;2329.60;;;;;;5094379;28;20020;-77
2023/10/29 03:20:00;;;;;;;28.25;14.98;;;332.90;2329.60;;;;;;5094223;28;20026;-75
2023/10/29 03:22:25;;;;;;;28.38;14.95;;;333.00;2329.60;;;;;;5093943;28;20081;-75
2023/10/29 03:24:51;;;;;;;18.77;13.50;;;333.10;2329.60;;;;;;5093782;28;20028;-75
2023/10/29 03:27:17;;;;;;;25.30;14.52;;;333.20;2329.60;;;;;;5092786;28;20028;-76
2023/10/29 03:29:43;;;;;;;22.58;13.93;;;333.10;2329.60;;;;;;5094195;28;20466;-75
2023/10/29 03:32:08;;;;;;;19.73;12.73;;;333.20;2329.60;;;;;;5093214;28;20032;-75
2023/10/29 03:34:34;;;;;;;26.65;14.18;;;333.20;2329.60;;;;;;5093207;28;20435;-76
2023/10/29 03:37:00;;;;;;;22.90;13.32;;;333.20;2329.60;;;;;;5093865;28;20024;-76
2023/10/29 03:39:26;;;;;;;26.70;13.50;;;333.10;2252.80;;;;;;5093264;28;20051;-75
2023/10/29 03:41:52;;;;;;;23.02;14.18;;;333.00;2329.60;;;;;;5093888;28;20023;-76
2023/10/29 03:44:17;;;;;;;17.88;11.35;;;332.80;2329.60;;;;;;5092848;28;20107;-75
2023/10/29 03:46:48;;;;;;;19.25;12.57;;;308.10;2099.20;;;;;;5093624;28;20469;-75
2023/10/29 03:49:16;;;;;;;20.55;12.30;;;308.10;2252.80;;;;;;5093482;28;20465;-75
2023/10/29 03:51:43;;;;;;;17.00;11.40;;;307.90;2304.00;;;;;;5091399;28;20048;-76
2023/10/29 03:54:09;;;;;;;19.60;10.60;;;308.10;2304.00;;;;;;5093287;28;20020;-76
2023/10/29 03:56:35;;;;;;;19.42;12.52;;;307.80;2304.00;;;;;;5092870;28;20483;-76
2023/10/29 03:59:00;;;;;;;21.25;12.77;;;307.70;2304.00;;;;;;5093629;28;20020;-76
2023/10/29 04:01:26;;;;;;;23.17;13.95;;;307.80;2304.00;;;;;;5092703;28;20398;-75
2023/10/29 04:03:52;;;;;;;25.40;14.52;;;307.80;2304.00;;;;;;5092954;28;20019;-76
2023/10/29 04:06:17;;;;;;;26.42;16.80;;;307.70;2304.00;;;;;;5093046;28;20034;-76
2023/10/29 04:08:43;;;;;;;27.05;16.77;;;307.70;2304.00;;;;;;5092787;28;20028;-75
2023/10/29 04:11:09;;;;;;;22.42;15.07;;;307.70;2304.00;;;;;;5091169;28;20031;-75
2023/10/29 04:13:35;;;;;;;28.58;15.65;;;307.70;2304.00;;;;;;5092750;28;20024;-76
2023/10/29 04:16:00;;;;;;;31.23;16.25;;;307.70;2304.00;;;;;;5092649;28;20462;-76
2023/10/29 04:18:31;;;;;;;22.67;14.20;;;307.80;2304.00;;;;;;5092860;28;20058;-76
2023/10/29 04:21:08;;;;;;;29.02;17.05;;;307.80;2304.00;;;;;;5088054;28;20062;-76
2023/10/29 04:23:37;;;;;;;22.08;14.68;;;307.90;2304.00;;;;;;5086374;28;20103;-75
2023/10/29 04:26:02;;;;;;;23.52;14.40;;;308.10;2304.00;;;;;;5092651;28;20119;-75
2023/10/29 04:28:28;;;;;;;21.55;13.80;;;332.80;2329.60;;;;;;5089838;28;20066;-76
2023/10/29 04:30:55;;;;;;;27.42;13.38;;;332.90;2329.60;;;;;;5091572;28;20491;-75
2023/10/29 04:33:22;;;;;;;26.40;14.20;;;333.00;2329.60;;;;;;5085110;28;20021;-76
2023/10/29 04:35:47;;;;;;;23.52;13.90;;;332.90;2329.60;;;;;;5097205;28;20032;-77
2023/10/29 04:38:13;;;;;;;24.05;12.60;;;332.90;2329.60;;;;;;5098511;28;20413;-75
2023/10/29 04:40:39;;;;;;;25.20;13.73;;;332.90;2329.60;;;;;;5089014;28;20024;-76
2023/10/29 04:43:05;;;;;;;24.80;13.93;;;333.00;2329.60;;;;;;5096154;28;20024;-76
2023/10/29 04:45:31;;;;;;;20.73;12.98;;;333.00;2329.60;;;;;;5096530;28;20028;-76
2023/10/29 04:47:56;;;;;;;27.77;13.13;;;333.10;2329.60;;;;;;5096728;28;20028;-76
2023/10/29 04:50:22;;;;;;;19.67;13.23;;;333.10;2329.60;;;;;;5094644;28;20196;-76
2023/10/29 04:52:48;;;;;;;25.23;12.85;;;333.10;2329.60;;;;;;5095927;28;20550;-75
2023/10/29 04:55:13;;;;;;;24.73;12.15;;;333.20;2227.20;;;;;;5093908;28;20055;-75
2023/10/29 04:57:39;;;;;;;23.30;13.00;;;333.20;2329.60;;;;;;5092467;28;20536;-76
2023/10/29 05:00:06;;;;;;;22.10;12.25;;;333.10;2329.60;;;;;;5080739;28;20113;-76
2023/10/29 05:02:32;;;;;;;17.80;11.88;;;333.00;2329.60;;;;;;5093783;28;20048;-76
2023/10/29 05:04:57;;;;;;;21.88;12.43;;;333.00;2329.60;;;;;;5081342;28;20375;-76
2023/10/29 05:07:23;;;;;;;20.00;13.45;;;333.00;2329.60;;;;;;5095313;28;20028;-76
2023/10/29 05:09:49;;;;;;;19.38;12.57;;;333.00;2329.60;;;;;;5096164;28;20020;-75
2023/10/29 05:12:15;;;;;;;18.10;11.25;;;333.10;2329.60;;;;;;5096642;28;20095;-76
2023/10/29 05:14:40;;;;;;;20.77;13.10;;;332.90;1996.80;;;;;;5095777;28;20036;-76
2023/10/29 05:17:07;;;;;;;26.23;13.32;;;332.90;2252.80;;;;;;5094785;28;20024;-76
2023/10/29 05:19:32;;;;;;;23.70;13.05;;;332.90;2278.40;;;;;;5096369;28;20032;-76
2023/10/29 05:21:58;;;;;;;21.98;13.73;;;332.90;2201.60;;;;;;5095781;28;20031;-75
2023/10/29 05:24:24;;;;;;;23.27;12.70;;;332.90;2329.60;;;;;;5095897;28;20032;-75
2023/10/29 05:26:49;;;;;;;28.13;12.57;;;332.80;2329.60;;;;;;5082425;28;20437;-76
2023/10/29 05:29:16;;;;;;;25.73;14.43;;;332.90;2329.60;;;;;;5086508;28;20020;-75
2023/10/29 05:31:42;;;;;;;24.17;13.60;;;332.90;2329.60;;;;;;5081956;28;20434;-76
2023/10/29 05:34:07;;;;;;;22.13;13.73;;;332.90;2329.60;;;;;;5078866;28;20037;-75
2023/10/29 05:36:33;;;;;;;23.85;12.65;;;333.10;2329.60;;;;;;5084880;28;20028;-76
2023/10/29 05:38:59;;;;;;;21.02;13.32;;;333.00;2329.60;;;;;;5080661;28;20032;-75
2023/10/29 05:41:25;;;;;;;23.77;13.00;;;333.10;2329.60;;;;;;5076332;28;20028;-76
2023/10/29 05:43:51;;;;;;;21.05;13.07;;;333.10;2329.60;;;;;;5081950;28;20050;-75
2023/10/29 05:46:16;;;;;;;20.80;12.95;;;333.20;2329.60;;;;;;5088833;28;20068;-76
2023/10/29 05:48:42;;;;;;;25.88;13.63;;;333.40;2329.60;;;;;;5078694;28;20081;-76
2023/10/29 05:51:12;;;;;;;22.23;12.60;;;333.40;2329.60;;;;;;5085653;28;20032;-76
2023/10/29 05:53:38;;;;;;;25.08;14.02;;;333.50;2329.60;;;;;;5093950;28;20123;-76
2023/10/29 05:56:05;;;;;;;23.38;13.48;;;333.50;2329.60;;;;;;5090436;28;20100;-76
2023/10/29 05:58:31;;;;;;;19.13;11.93;;;333.70;1971.20;;;;;;5079675;28;20020;-75
2023/10/29 06:00:57;;;;;;;19.70;12.38;;;333.70;2022.40;;;;;;5078442;28;20027;-76
2023/10/29 06:03:24;;;;;;;16.73;11.50;;;358.50;2329.60;;;;;;5077911;28;20162;-75
2023/10/29 06:05:51;;;;;;;19.83;12.52;;;358.50;2329.60;;;;;;5081479;28;20024;-76
2023/10/29 06:08:17;;;;;;;18.00;10.25;;;358.50;2329.60;;;;;;5085802;28;20111;-76
2023/10/29 06:10:43;;;;;;;17.42;11.05;;;358.50;2329.60;;;;;;5078336;28;20092;-75
2023/10/29 06:13:09;;;;;;;19.95;11.60;;;358.50;2329.60;;;;;;5081372;28;20024;-76
2023/10/29 06:15:35;;;;;;;18.13;11.40;;;358.60;2329.60;;;;;;5086668;28;20016;-75
2023/10/29 06:18:04;;;;;;;19.05;11.07;;;358.70;2329.60;;;;;;5082950;28;20029;-75
2023/10/29 06:20:30;;;;;;;18.98;11.95;;;358.70;2329.60;;;;;;5084088;28;20016;-75
2023/10/29 06:22:55;;;;;;;20.50;11.40;;;358.60;2329.60;;;;;;5080608;28;20060;-75
2023/10/29 06:25:21;;;;;;;26.50;11.90;;;358.60;2329.60;;;;;;5086504;28;20060;-75
2023/10/29 06:27:47;;;;;;;21.98;12.00;;;358.60;2329.60;;;;;;5082372;28;20028;-76
2023/10/29 06:30:13;;;;;;;25.95;12.57;;;358.60;2329.60;;;;;;5083446;28;20046;-77
2023/10/29 06:32:39;;;;;;;23.52;12.95;;;358.70;2329.60;;;;;;5082679;28;20115;-75
2023/10/29 06:35:05;;;;;;;30.58;14.55;;;358.80;2329.60;;;;;;5085080;28;20016;-75
2023/10/29 06:37:31;;;;;;;32.70;14.35;;;358.80;2048.00;;;;;;5078328;28;20422;-75
2023/10/29 06:39:57;;;;;;;24.27;15.15;;;359.00;2329.60;;;;;;5081118;28;20032;-74
2023/10/29 06:42:23;;;;;;;33.28;14.75;;;359.00;2099.20;;;;;;5080086;28;20028;-76
2023/10/29 06:44:49;;;;;;;32.92;14.15;;;359.20;2124.80;;;;;;5080078;28;20020;-76
2023/10/29 06:47:14;;;;;;;27.85;13.50;;;359.30;2329.60;;;;;;5084107;28;20032;-76
2023/10/29 06:49:41;;;;;;;29.63;14.52;;;384.00;2329.60;;;;;;5085251;28;20030;-76
2023/10/29 06:52:08;;;;;;;31.70;13.48;;;384.10;2329.60;;;;;;5080856;28;20072;-77
2023/10/29 06:54:34;;;;;;;18.52;10.88;;;384.30;2329.60;;;;;;5085396;28;20432;-77
2023/10/29 06:57:00;;;;;;;19.25;10.38;;;384.30;2329.60;;;;;;5083638;28;20056;-76
2023/10/29 06:59:28;;;;;;;20.85;10.20;;;384.40;2329.60;;;;;;5086380;28;20024;-76
2023/10/29 07:01:56;;;;;;;18.50;9.52;;;384.40;2329.60;;;;;;5082250;28;20023;-75
2023/10/29 07:04:22;;;;;;;18.23;9.48;;;384.60;2329.60;;;;;;5084551;28;20031;-76
2023/10/29 07:06:49;;;;;;;17.33;9.13;;;384.70;2329.60;;;;;;5080728;28;20032;-75
2023/10/29 07:09:15;;;;;;;15.80;8.77;;;384.90;2329.60;;;;;;5075759;28;20042;-74
2023/10/29 07:11:42;;;;;;;15.15;8.23;;;384.90;2329.60;;;;;;5083225;28;20020;-75
2023/10/29 07:14:09;;;;;;;16.05;8.32;;;409.70;2355.20;;;;;;5083153;28;20012;-73
2023/10/29 07:16:35;;;;;;;18.15;8.50;;;409.70;2355.20;;;;;;5084636;28;20024;-75
2023/10/29 07:19:00;;;;;;;21.88;9.15;;;409.70;2355.20;;;;;;5076819;28;20024;-76
2023/10/29 07:21:26;;;;;;;16.25;7.22;;;409.80;2355.20;;;;;;5085582;28;20020;-76
2023/10/29 07:23:52;;;;;;;18.60;6.97;;;409.90;2355.20;;;;;;5076063;28;20036;-73
2023/10/29 07:26:18;;;;;;;12.98;6.70;;;410.00;2355.20;;;;;;5079931;28;20439;-74
2023/10/29 07:28:43;;;;;;;14.60;6.20;;;410.20;2355.20;;;;;;5080473;28;20020;-74
2023/10/29 07:31:10;;;;;;;13.00;6.10;;;;;;;;;;5080836;28;20086;-75
2023/10/29 07:33:35;;;;;;;15.40;7.30;;;410.50;2355.20;;;;;;5082305;28;20036;-73
2023/10/29 07:36:06;;;;;;;10.50;5.10;;;435.30;2355.20;;;;;;5085396;28;20028;-76
2023/10/29 07:38:31;;;;;;;11.25;5.80;;;435.50;2355.20;;;;;;5088715;28;20020;-75
2023/10/29 07:40:57;;;;;;;10.32;5.75;;;435.70;2355.20;;;;;;5080672;28;20417;-76
2023/10/29 07:43:23;;;;;;;9.95;5.60;;;435.80;2355.20;;;;;;5084511;28;20048;-75
2023/10/29 07:45:51;;;;;;;15.63;5.72;;;435.80;2355.20;;;;;;5084780;28;20074;-75
2023/10/29 07:48:18;;;;;;;11.32;5.70;;;435.80;2355.20;;;;;;5077107;28;20028;-75
2023/10/29 07:50:52;;;;;;;9.15;5.28;;;435.80;2355.20;;;;;;5078638;28;20024;-75
2023/10/29 07:53:19;;;;;;;15.70;5.97;;;435.90;2355.20;;;;;;5085434;28;20424;-76
2023/10/29 07:55:45;;;;;;;9.88;5.68;;;435.80;2355.20;;;;;;5089030;28;20474;-75
2023/10/29 07:58:10;;;;;;;10.32;4.03;;;435.80;2355.20;;;;;;5087909;28;20035;-76
2023/10/29 08:00:37;;;;;;;11.65;5.90;;;435.80;2355.20;;;;;;5087000;28;20056;-75
2023/10/29 08:03:04;;;;;;;14.40;4.43;;;435.80;2355.20;;;;;;5084617;28;20033;-76
2023/10/29 08:05:30;;;;;;;13.15;4.18;;;435.80;2355.20;;;;;;5091031;28;20103;-77
2023/10/29 08:07:56;;;;;;;10.65;4.43;;;435.90;2355.20;;;;;;5085007;28;20540;-76
2023/10/29 08:10:23;;;;;;;10.40;3.67;;;436.00;2355.20;;;;;;5084966;28;20032;-76
2023/10/29 08:12:49;;;;;;;10.05;3.88;;;436.10;2355.20;;;;;;5074356;28;20021;-76
2023/10/29 08:15:15;;;;;;;10.25;4.32;;;460.80;2380.80;;;;;;5076803;28;20078;-76
2023/10/29 08:17:41;;;;;;;10.90;4.18;;;460.90;2380.80;;;;;;5083466;28;20062;-76
2023/10/29 08:20:07;;;;;;;11.30;4.20;;;461.10;2380.80;;;;;;5086645;28;20469;-77
2023/10/29 08:22:32;;;;;;;16.10;4.18;;;461.20;2380.80;;;;;;5083355;28;20115;-78
2023/10/29 08:24:59;;;;;;;11.00;4.65;;;461.30;2380.80;;;;;;5082317;28;20425;-77
2023/10/29 08:27:25;;;;;;;8.80;3.80;;;461.50;2380.80;;;;;;5083880;28;20028;-77
2023/10/29 08:29:52;;;;;;;11.50;3.63;;;461.60;2380.80;;;;;;5080058;28;20020;-77
2023/10/29 08:32:18;;;;;;;7.35;3.25;;;461.60;2380.80;;;;;;5088617;28;20024;-78
2023/10/29 08:34:44;;;;;;;8.45;3.10;;;461.60;2380.80;;;;;;5080319;28;20024;-75
2023/10/29 08:37:13;;;;;;;9.50;3.65;;;461.60;2380.80;;;;;;5088480;28;20016;-77
2023/10/29 08:39:39;;;;;;;8.52;4.15;;;461.60;2380.80;;;;;;5083669;28;20024;-76
2023/10/29 08:42:05;;;;;;;8.75;3.78;;;461.60;2380.80;;;;;;5082890;28;20016;-75
2023/10/29 08:44:31;;;;;;;13.98;5.38;;;461.70;2380.80;;;;;;5079151;28;20073;-77
2023/10/29 08:46:57;;;;;;;13.95;5.05;;;486.40;2380.80;;;;;;5082933;28;20442;-76
2023/10/29 08:49:23;;;;;;;13.30;6.50;;;486.50;2380.80;;;;;;5083767;28;20029;-76
2023/10/29 08:51:50;;;;;;;14.18;4.78;;;486.60;2380.80;;;;;;5078938;28;20374;-76
2023/10/29 08:54:15;;;;;;;8.45;4.10;;;486.70;2380.80;;;;;;5080604;28;20024;-76
2023/10/29 08:56:41;;;;;;;19.13;8.35;;;486.80;2380.80;;;;;;5085918;28;20028;-76
2023/10/29 08:59:07;;;;;;;13.63;4.93;;;487.00;2380.80;;;;;;5078374;28;20413;-76
2023/10/29 09:01:33;;;;;;;9.45;3.95;;;487.20;2380.80;;;;;;5076459;28;20059;-76
2023/10/29 09:03:59;;;;;;;21.60;4.32;;;487.30;2380.80;;;;;;5083480;28;20059;-76
2023/10/29 09:06:25;;;;;;;14.90;4.60;;;487.30;2380.80;;;;;;5080987;28;20028;-77
2023/10/29 09:08:52;;;;;;;6.57;3.75;;;512.20;2380.80;;;;;;5076684;28;20016;-77
2023/10/29 09:11:18;;;;;;;7.40;3.25;;;512.40;2380.80;;;;;;5082736;28;20012;-77
2023/10/29 09:13:44;;;;;;;15.27;6.45;;;512.70;2380.80;;;;;;5079095;28;20077;-77
2023/10/29 09:16:09;;;;;;;6.10;3.78;;;537.60;2406.40;;;;;;5074845;28;20032;-77
2023/10/29 09:18:36;;;;;;;11.00;3.70;;;537.80;2406.40;;;;;;5087553;28;20484;-76
2023/10/29 09:21:02;;;;;;;6.05;3.53;;;538.00;2406.40;;;;;;5083143;28;20035;-77
2023/10/29 09:23:29;;;;;;;10.52;3.97;;;538.50;2406.40;;;;;;5082180;28;20094;-77
2023/10/29 09:25:55;;;;;;;7.88;3.30;;;563.50;2432.00;;;;;;5083895;28;20035;-77
2023/10/29 09:28:21;;;;;;;11.43;5.60;;;563.70;2432.00;;;;;;5080204;28;20048;-77
2023/10/29 09:30:47;;;;;;;10.63;4.35;;;563.70;2432.00;;;;;;5078893;28;20055;-76
2023/10/29 09:33:15;;;;;;;12.15;4.28;;;564.00;2432.00;;;;;;5084073;28;20082;-76
2023/10/29 09:35:42;;;;;;;9.18;3.15;;;564.10;2432.00;;;;;;5084820;28;20021;-76
2023/10/29 09:38:07;;;;;;;11.32;4.55;;;588.90;2432.00;;;;;;5083453;28;20044;-76
2023/10/29 09:40:33;;;;;;;9.45;4.03;;;589.00;2432.00;;;;;;5089111;28;20070;-76
2023/10/29 09:43:03;;;;;;;7.60;2.67;;;589.50;2406.40;;;;;;5084541;28;20055;-76
2023/10/29 09:45:30;;;;;;;7.78;3.20;;;;;;;;;;5081648;28;20435;-74
2023/10/29 09:48:00;;;;;;;5.68;3.20;;;;;;;;;;5088262;28;20047;-74
2023/10/29 09:50:26;;;;;;;6.53;3.20;;;;;;;;;;5091153;28;20012;-75
2023/10/29 09:52:54;;;;;;;9.10;4.35;;;614.90;2304.00;;;;;;5078463;28;20052;-75
2023/10/29 09:55:21;;;;;;;9.90;4.10;;;614.90;2329.60;;;;;;5078550;28;20032;-75
2023/10/29 09:57:48;;;;;;;8.88;3.70;;;614.90;2304.00;;;;;;5090353;28;20049;-76
2023/10/29 10:00:16;;;;;;;7.10;3.45;;;614.90;2304.00;;;;;;5088015;28;20043;-76
2023/10/29 10:03:08;;;;;;;7.07;3.33;;;615.30;2252.80;;;;;;5081679;28;20021;-77
2023/10/29 10:05:35;;;;;;;11.82;4.28;;;640.00;2176.00;;;;;;5085434;28;20046;-78
2023/10/29 10:08:01;;;;;;;18.77;3.53;;;640.70;2150.40;;;;;;5082113;28;20158;-77
2023/10/29 10:10:41;;;;;;;9.07;3.70;;;640.40;2124.80;;;;;;5087728;28;20106;-76
2023/10/29 10:13:07;;;;;;;10.35;3.58;;;640.20;2201.60;;;;;;5088897;28;20019;-77
2023/10/29 10:15:33;;;;;;;8.38;5.13;;;640.30;2124.80;;;;;;5083004;28;20089;-76
2023/10/29 10:18:00;;;;;;;11.57;4.03;;;640.30;2201.60;;;;;;5082104;28;20037;-75
2023/10/29 10:20:26;;;;;;;12.43;3.53;;;640.50;2176.00;;;;;;5083012;28;20024;-76
2023/10/29 10:23:01;;;;;;;8.63;4.30;;;640.70;2073.60;;;;;;5085733;28;20465;-76
2023/10/29 10:25:28;;;;;;;6.60;3.08;;;;;;;;;;5080598;28;20112;-77
2023/10/29 10:27:56;;;;;;;13.38;3.42;;;665.70;2022.40;;;;;;5083689;28;20028;-76
2023/10/29 10:30:33;;;;;;;9.25;3.08;;;666.00;2048.00;;;;;;5083774;28;20037;-77
2023/10/29 10:33:14;;;;;;;6.03;2.60;;;665.90;1920.00;;;;;;5081025;28;20016;-76
2023/10/29 10:35:51;;;;;;;12.25;3.05;;;640.50;1920.00;;;;;;5082491;28;20029;-76
2023/10/29 10:38:29;;;;;;;5.45;2.85;;;640.20;1971.20;;;;;;5083670;28;20375;-76
2023/10/29 10:40:59;;;;;;;10.23;2.90;;;640.50;1920.00;;;;;;5087920;28;20035;-76
2023/10/29 10:43:26;;;;;;;6.07;3.40;;;640.70;1894.40;;;;;;5084826;28;20023;-77
2023/10/29 10:45:55;;;;;;;8.57;3.00;;;640.60;1945.60;;;;;;5084917;28;20032;-77
2023/10/29 10:48:21;;;;;;;11.10;3.22;;;640.50;1920.00;;;;;;5081191;28;20485;-76
2023/10/29 10:50:47;;;;;;;8.32;3.10;;;640.40;1868.80;;;;;;5084033;28;20056;-76
2023/10/29 10:53:16;;;;;;;8.43;3.10;;;640.60;1920.00;;;;;;5080658;28;20405;-76
2023/10/29 10:55:43;;;;;;;6.70;3.20;;;640.60;1868.80;;;;;;5083260;28;20107;-75
2023/10/29 10:58:12;;;;;;;7.05;3.10;;;640.50;1920.00;;;;;;5080835;28;20047;-75
2023/10/29 11:00:38;;;;;;;8.75;3.00;;;640.50;1920.00;;;;;;5091905;28;20538;-75
2023/10/29 11:03:05;;;;;;;5.22;2.60;;;640.90;1920.00;;;;;;5080631;28;20099;-75
2023/10/29 11:05:33;;;;;;;9.80;3.25;;;640.50;1868.80;;;;;;5079225;28;20111;-76
2023/10/29 11:08:00;;;;;;;7.03;3.00;;;640.50;1868.80;;;;;;5081438;28;20028;-76
2023/10/29 11:10:26;;;;;;;7.57;3.47;;;640.20;1868.80;;;;;;5083266;28;20465;-75
2023/10/29 11:12:52;;;;;;;8.25;2.65;;;640.10;1868.80;;;;;;5079831;28;20035;-76
2023/10/29 11:15:20;;;;;;;8.60;3.33;;;640.20;1868.80;;;;;;5082711;28;20031;-76
2023/10/29 11:17:56;;;;;;;8.88;3.10;;;640.60;1920.00;;;;;;5081962;28;20362;-76
2023/10/29 11:20:38;;;;;;;9.00;2.75;;;640.80;1920.00;;;;;;5085141;28;20373;-76
2023/10/29 11:23:14;;;;;;;6.20;2.90;;;665.60;1843.20;;;;;;5080445;28;20044;-76
2023/10/29 11:25:41;;;;;;;;;;;665.70;1817.60;;;;;;5085107;28;20082;-76
2023/10/29 11:28:33;;;;;;;7.85;2.90;;;666.20;1792.00;;;;;;5078117;28;19931;-77
2023/10/29 11:31:19;;;;;;;7.43;3.03;;;666.30;1792.00;;;;;;5089103;28;20012;-76
2023/10/29 11:33:57;;;;;;;10.00;2.38;;;666.50;1715.20;;;;;;5086047;28;20017;-76
2023/10/29 11:36:34;;;;;;;7.95;2.70;;;666.30;1715.20;;;;;;5085255;28;20077;-76
2023/10/29 11:39:15;;;;;;;5.28;2.13;;;665.90;1715.20;;;;;;5080390;28;20351;-76
2023/10/29 11:41:45;;;;;;;6.15;2.63;;;665.90;1638.40;;;;;;5085157;28;20530;-76
2023/10/29 11:44:18;;;;;;;5.10;2.47;;;666.00;1689.60;;;;;;5083372;28;20536;-74
2023/10/29 11:46:58;;;;;;;8.68;2.33;;;666.00;1638.40;;;;;;5078172;28;20035;-74
2023/10/29 11:49:28;;;;;;;9.13;2.65;;;665.80;1664.00;;;;;;5083093;28;20098;-75
2023/10/29 11:51:57;;;;;;;7.15;2.55;;;666.00;1638.40;;;;;;5082771;28;20084;-73
2023/10/29 11:54:23;;;;;;;8.05;2.35;;;666.20;1664.00;;;;;;5076471;28;20039;-75
2023/10/29 11:56:50;;;;;;;8.70;2.70;;;666.30;1612.80;;;;;;5082313;28;20032;-76
2023/10/29 11:59:16;;;;;;;5.82;2.60;;;666.20;1561.60;;;;;;5077803;28;20024;-75
2023/10/29 12:01:42;;;;;;;5.47;2.33;;;666.30;1638.40;;;;;;5080530;28;20028;-74
2023/10/29 12:04:17;;;;;;;6.45;2.65;;;666.20;1715.20;;;;;;5076474;28;20016;-76